Alma, Arkansas
Current Conditions -  °F | °C
As of 12:53 PM on Monday 20 Oct 2014 (Local Time) from KFSM Reporting Station
Overcast Overcast  
Wind Chill: 18°   Ceiling: 4700
Heat Index: 18°   Visibility: 10mi
Dew Point: 13°   Wind: 0mph
Humidity: 72%   Direction: NA
Pressure: 30.08"   Gusts: NA
Location:  35.48°N, 94.22°W
Report Text: KFSM 201753Z 00000KT 10SM BKN047 OVC060 18/13 A3008 RMK AO2 SLP184 60000 T01780128 10178 20122 58011
Loading
Personal Weather Stations






























Interactive Weather Map New forecast layout! Learn more

10-Day Weather Forecast

Advertisements
Track Severe Weather on mobile